Time;durP1;ratioP1;P1;durP2;ratioP2;P2;SDS_P1;SDS_P2;PMS_P1;PMS_P2;Temp;Humidity;BMP_temperature;BMP_pressure;BME280_temperature;BME280_humidity;BME280_pressure;Samples;Min_cycle;Max_cycle;Signal;HPM_P1;HPM_P2
2021/08/22 00:03:55;;;;;;;22.65;17.05;;;;;;;19.53;81.32;100421.44;2937296;81;21056;-64
2021/08/22 00:07:58;;;;;;;18.12;13.88;;;;;;;19.46;81.53;100416.45;2935998;81;21002;-63
2021/08/22 00:12:33;;;;;;;19.35;14.70;;;;;;;19.37;81.86;100410.29;2960458;79;21039;-65
2021/08/22 00:16:38;;;;;;;16.33;14.60;;;;;;;19.29;82.12;100405.47;2931694;81;21001;-64
2021/08/22 00:21:03;;;;;;;20.62;14.58;;;;;;;19.20;82.61;100408.73;2966270;79;20979;-64
2021/08/22 00:25:06;;;;;;;19.12;16.32;;;;;;;19.19;82.64;100406.53;2944702;79;20978;-65
2021/08/22 00:29:10;;;;;;;16.93;14.33;;;;;;;19.13;82.40;100413.47;2912907;81;21087;-63
2021/08/22 00:33:12;;;;;;;19.35;14.68;;;;;;;18.92;82.71;100421.33;2881261;81;21056;-64
2021/08/22 00:37:14;;;;;;;18.15;14.25;;;;;;;18.74;83.88;100416.22;2928193;80;21010;-64
2021/08/22 00:41:16;;;;;;;16.93;14.98;;;;;;;18.70;84.21;100421.97;2929132;81;20965;-64
2021/08/22 00:51:03;;;;;;;19.65;14.73;;;;;;;18.51;84.79;100430.48;2928771;81;21033;-64
2021/08/22 00:55:06;;;;;;;22.55;16.95;;;;;;;18.39;84.91;100419.25;2929071;81;20930;-63
2021/08/22 00:59:19;;;;;;;20.75;15.40;;;;;;;18.31;85.47;100411.18;2928973;81;20993;-64
2021/08/22 01:04:00;;;;;;;17.57;15.72;;;;;;;18.21;85.57;100409.55;2929403;81;21022;-63
2021/08/22 01:09:03;;;;;;;17.52;15.55;;;;;;;18.07;85.82;100398.95;2929302;81;21001;-64
2021/08/22 01:13:11;;;;;;;19.40;15.23;;;;;;;17.92;86.70;100404.70;2928934;81;20997;-65
2021/08/22 01:17:16;;;;;;;16.97;15.32;;;;;;;17.78;86.83;100399.00;2928974;80;21009;-64
2021/08/22 01:21:21;;;;;;;17.30;14.50;;;;;;;17.65;87.16;100394.15;2929115;81;21045;-65
2021/08/22 01:25:52;;;;;;;17.12;15.20;;;;;;;17.62;87.63;100390.95;2929393;81;20962;-66
2021/08/22 01:35:42;;;;;;;18.67;15.65;;;;;;;17.49;87.67;100386.09;2943300;81;21036;-65
2021/08/22 01:39:45;;;;;;;19.60;17.35;;;;;;;17.38;88.62;100379.20;2943206;81;20989;-63
2021/08/22 01:43:47;;;;;;;19.62;16.27;;;;;;;17.34;89.33;100381.38;2942931;80;20966;-64
2021/08/22 01:48:03;;;;;;;19.10;15.25;;;;;;;17.35;89.50;100383.05;2942539;80;20922;-64
2021/08/22 01:52:08;;;;;;;16.65;14.95;;;;;;;17.32;89.63;100376.67;2942588;80;20985;-65
2021/08/22 01:56:09;;;;;;;18.45;16.52;;;;;;;17.34;90.08;100376.52;2943800;81;20981;-63
2021/08/22 02:00:13;;;;;;;19.15;16.50;;;;;;;17.40;90.09;100374.49;2943711;80;20981;-64
2021/08/22 02:09:00;;;;;;;20.43;17.37;;;;;;;17.44;89.47;100366.42;2941017;81;21064;-64
2021/08/22 02:13:04;;;;;;;19.77;16.17;;;;;;;17.40;90.18;100356.53;2943451;80;21000;-65
2021/08/22 02:17:07;;;;;;;18.95;16.95;;;;;;;17.45;90.16;100350.62;2943137;80;21047;-64
2021/08/22 02:21:09;;;;;;;17.05;15.32;;;;;;;17.37;90.21;100346.08;2943226;81;21024;-66
2021/08/22 02:25:11;;;;;;;17.80;15.15;;;;;;;17.30;90.73;100352.33;2943345;81;20993;-64
2021/08/22 02:29:13;;;;;;;18.42;15.83;;;;;;;17.24;91.47;100351.97;2931784;81;21056;-63
2021/08/22 02:33:15;;;;;;;22.22;17.20;;;;;;;17.26;91.86;100339.20;2928448;81;21111;-63
2021/08/22 02:37:37;;;;;;;20.92;18.82;;;;;;;17.33;91.96;100347.44;2928805;80;21044;-63
2021/08/22 02:41:38;;;;;;;19.73;16.62;;;;;;;17.39;91.65;100336.03;2929118;80;20990;-63
2021/08/22 02:45:40;;;;;;;18.52;16.50;;;;;;;17.49;91.03;100334.50;2929257;81;20980;-64
2021/08/22 02:50:19;;;;;;;22.30;17.02;;;;;;;17.56;90.62;100334.14;2929353;80;20949;-63
2021/08/22 02:54:21;;;;;;;22.60;16.93;;;;;;;17.66;90.18;100333.96;2929365;80;21013;-64
2021/08/22 02:58:23;;;;;;;19.60;15.93;;;;;;;17.77;89.43;100334.10;2929144;80;21004;-63
2021/08/22 03:03:34;;;;;;;23.32;17.67;;;;;;;17.75;88.62;100322.67;2928968;81;20989;-63
2021/08/22 03:07:36;;;;;;;20.97;17.10;;;;;;;17.65;88.40;100325.56;2928950;80;21044;-63
2021/08/22 03:11:58;;;;;;;21.65;18.77;;;;;;;17.48;88.99;100323.39;2928694;80;20978;-65
2021/08/22 03:16:00;;;;;;;19.45;17.42;;;;;;;17.45;89.71;100322.39;2928682;80;20981;-64
2021/08/22 03:20:07;;;;;;;21.70;18.35;;;;;;;17.53;89.62;100323.73;2928645;81;21025;-63
2021/08/22 03:24:09;;;;;;;23.80;19.98;;;;;;;17.50;89.13;100320.54;2928641;81;20942;-65
2021/08/22 03:28:57;;;;;;;19.20;17.05;;;;;;;17.45;89.29;100313.50;2934137;80;21048;-63
2021/08/22 03:32:59;;;;;;;21.77;18.00;;;;;;;17.39;89.13;100328.45;2943377;81;20965;-65
2021/08/22 03:37:01;;;;;;;21.48;18.17;;;;;;;17.21;89.36;100324.09;2943208;80;20981;-63
2021/08/22 03:41:43;;;;;;;20.37;18.07;;;;;;;17.22;90.31;100331.67;2943288;81;20981;-63
2021/08/22 03:45:45;;;;;;;21.33;17.82;;;;;;;17.27;90.13;100325.27;2943809;81;20973;-63
2021/08/22 03:49:52;;;;;;;18.95;16.93;;;;;;;17.33;89.48;100325.11;2943383;80;20961;-64
2021/08/22 03:53:54;;;;;;;22.60;19.17;;;;;;;17.22;89.19;100324.42;2943400;80;20965;-63
2021/08/22 03:57:56;;;;;;;20.82;18.73;;;;;;;17.09;89.49;100333.48;2943264;81;21036;-64
2021/08/22 04:01:58;;;;;;;23.05;18.02;;;;;;;17.08;90.66;100326.44;2943318;81;21013;-64
2021/08/22 04:06:12;;;;;;;23.10;18.82;;;;;;;17.17;90.86;100329.97;2943003;80;21028;-65
2021/08/22 04:10:14;;;;;;;23.73;20.02;;;;;;;17.25;90.58;100332.15;2943316;80;21052;-63
2021/08/22 04:14:16;;;;;;;25.68;20.82;;;;;;;17.30;89.98;100332.99;2943569;81;21013;-63
2021/08/22 04:19:14;;;;;;;21.20;18.98;;;;;;;17.33;89.79;100329.14;2943510;80;21028;-63
2021/08/22 04:23:15;;;;;;;21.37;16.95;;;;;;;17.36;89.75;100336.34;2943330;81;20997;-63
2021/08/22 04:27:17;;;;;;;19.90;17.62;;;;;;;17.28;89.71;100336.36;2940818;79;21037;-63
2021/08/22 04:31:30;;;;;;;21.50;18.77;;;;;;;17.33;90.72;100340.72;2917162;81;21080;-63
2021/08/22 04:35:32;;;;;;;18.42;16.48;;;;;;;17.49;90.77;100332.31;2916253;81;21022;-64
2021/08/22 04:40:30;;;;;;;18.90;16.70;;;;;;;17.73;90.92;100340.84;2917139;81;20973;-63
2021/08/22 04:44:31;;;;;;;19.77;17.80;;;;;;;17.89;90.42;100346.68;2916986;81;20953;-63
2021/08/22 04:49:13;;;;;;;21.12;17.77;;;;;;;18.04;89.41;100335.23;2917067;81;21057;-64
2021/08/22 04:53:15;;;;;;;18.57;16.00;;;;;;;18.12;89.56;100335.20;2916871;81;20966;-63
2021/08/22 04:57:25;;;;;;;18.30;16.45;;;;;;;18.13;89.18;100326.95;2916896;81;20981;-66
2021/08/22 05:01:27;;;;;;;22.02;16.07;;;;;;;18.14;89.43;100322.39;2916974;81;20965;-64
2021/08/22 05:05:34;;;;;;;18.45;15.53;;;;;;;18.22;89.82;100319.69;2916845;81;21037;-64
2021/08/22 05:09:35;;;;;;;17.30;15.00;;;;;;;18.34;89.64;100313.40;2917066;81;20989;-64
2021/08/22 05:18:23;;;;;;;16.10;14.40;;;;;;;18.52;88.88;100306.91;2917066;81;21065;-64
2021/08/22 05:23:22;;;;;;;17.45;14.15;;;;;;;18.60;88.72;100310.88;2916847;81;21479;-68
2021/08/22 05:27:26;;;;;;;16.35;14.63;;;;;;;18.61;89.38;100312.56;2917750;80;20939;-65
2021/08/22 05:31:28;;;;;;;17.02;15.25;;;;;;;18.70;89.56;100302.57;2929303;81;20985;-64
2021/08/22 05:35:30;;;;;;;21.80;15.95;;;;;;;18.89;89.47;100303.97;2928920;81;21064;-64
2021/08/22 05:39:50;;;;;;;17.00;13.22;;;;;;;19.09;89.21;100304.85;2928874;81;21000;-63
2021/08/22 05:43:52;;;;;;;16.27;13.22;;;;;;;19.23;88.62;100308.08;2878574;82;20973;-64
2021/08/22 05:47:54;;;;;;;15.55;12.70;;;;;;;19.33;87.56;100306.99;2878665;82;21033;-64
2021/08/22 05:57:37;;;;;;;14.68;11.68;;;;;;;19.47;86.68;100308.88;2879191;82;21013;-64
2021/08/22 06:01:39;;;;;;;10.93;9.20;;;;;;;19.54;86.23;100313.86;2879055;82;21012;-63
2021/08/22 06:11:04;;;;;;;11.25;9.75;;;;;;;19.79;84.55;100300.09;2771190;86;21006;-64
2021/08/22 06:19:57;;;;;;;10.70;9.70;;;;;;;20.92;82.39;100297.61;2771356;85;21486;-65
2021/08/22 06:24:32;;;;;;;11.08;10.00;;;;;;;21.54;79.80;100288.41;2792370;85;21004;-65
2021/08/22 06:28:45;;;;;;;12.20;10.47;;;;;;;21.95;77.76;100291.36;2801425;84;21114;-64
2021/08/22 06:32:46;;;;;;;17.60;11.22;;;;;;;22.29;75.86;100294.20;2795394;85;21052;-64
2021/08/22 06:37:45;;;;;;;13.22;10.18;;;;;;;22.60;75.62;100292.37;2775328;86;21039;-64
2021/08/22 06:41:47;;;;;;;13.55;9.20;;;;;;;22.85;73.71;100277.36;2904844;81;21040;-65
2021/08/22 06:45:49;;;;;;;11.33;9.08;;;;;;;23.23;72.74;100277.59;2929233;81;21045;-64
2021/08/22 06:49:53;;;;;;;10.85;9.10;;;;;;;23.53;71.03;100277.14;2929048;81;20903;-63
2021/08/22 06:54:27;;;;;;;11.70;8.18;;;;;;;23.82;70.81;100283.14;2938331;80;21004;-64
2021/08/22 06:58:29;;;;;;;7.70;6.90;;;;;;;24.06;69.43;100278.06;2955790;80;21071;-64
2021/08/22 07:02:32;;;;;;;8.30;6.83;;;;;;;24.23;67.97;100269.42;2872456;83;20991;-66
2021/08/22 07:06:34;;;;;;;7.33;6.28;;;;;;;24.31;67.52;100265.08;2846601;82;21010;-64
2021/08/22 07:11:15;;;;;;;6.55;6.00;;;;;;;24.52;66.79;100268.51;2867952;82;20977;-65
2021/08/22 07:15:18;;;;;;;8.38;5.92;;;;;;;24.67;66.74;100264.96;2904676;82;20964;-65
2021/08/22 07:19:21;;;;;;;5.30;4.80;;;;;;;25.03;65.97;100261.80;2932356;79;20958;-67
2021/08/22 07:23:29;;;;;;;6.90;5.25;;;;;;;25.28;64.77;100266.38;2928865;81;21013;-65
2021/08/22 08:10:14;;;;;;;5.05;3.62;;;;;;;27.20;60.57;100270.59;2918331;79;21032;-66
2021/08/22 08:14:16;;;;;;;6.20;5.58;;;;;;;27.32;58.80;100270.59;2929517;81;21017;-65
2021/08/22 08:18:18;;;;;;;4.60;3.72;;;;;;;27.47;58.91;100266.55;2888864;81;21020;-65
2021/08/22 08:22:37;;;;;;;6.22;4.20;;;;;;;27.56;59.02;100267.05;2933440;80;20965;-65
2021/08/22 08:26:39;;;;;;;5.47;3.42;;;;;;;27.74;59.03;100266.90;2932317;81;21036;-65
2021/08/22 08:31:18;;;;;;;6.37;4.87;;;;;;;27.94;57.77;100264.30;2932015;81;21001;-65
2021/08/22 08:35:20;;;;;;;7.37;4.62;;;;;;;28.03;56.24;100260.09;2929955;81;21017;-70
2021/08/22 08:39:22;;;;;;;10.82;8.93;;;;;;;27.87;56.20;100261.70;2923220;81;21045;-65
2021/08/22 08:43:55;;;;;;;8.05;4.92;;;;;;;27.85;56.60;100257.53;2882311;81;20973;-64
2021/08/22 08:47:58;;;;;;;5.92;4.72;;;;;;;28.08;56.36;100258.00;2894908;81;21024;-69
2021/08/22 08:52:45;;;;;;;5.15;4.65;;;;;;;28.12;57.29;100250.16;2927598;80;21067;-65
2021/08/22 08:56:49;;;;;;;8.08;4.40;;;;;;;28.14;55.84;100244.72;2921524;80;20976;-68
2021/08/22 09:00:51;;;;;;;6.00;3.85;;;;;;;28.12;55.74;100242.77;2923804;81;21009;-66
2021/08/22 09:05:11;;;;;;;5.78;3.70;;;;;;;28.27;57.26;100234.05;2933234;79;21000;-65
2021/08/22 09:15:05;;;;;;;3.17;2.77;;;;;;;28.50;55.88;100235.02;2774070;86;21106;-65
2021/08/22 09:19:37;;;;;;;6.25;5.65;;;;;;;28.76;54.93;100229.97;2820815;84;20984;-68
2021/08/22 09:24:50;;;;;;;3.33;3.02;;;;;;;28.92;54.71;100225.06;2833690;84;20979;-65
2021/08/22 09:29:47;;;;;;;6.40;2.85;;;;;;;29.09;54.48;100220.11;2792228;85;21093;-68
2021/08/22 09:34:48;;;;;;;4.28;3.77;;;;;;;29.10;54.16;100230.51;2791915;85;21002;-67
2021/08/22 09:39:53;;;;;;;4.08;3.00;;;;;;;29.10;54.16;100230.51;2791852;85;20998;-71
2021/08/22 09:44:42;;;;;;;7.10;3.22;;;;;;;29.07;53.89;100227.72;2792522;85;21045;-66
2021/08/22 09:49:11;;;;;;;12.75;4.03;;;;;;;29.25;53.65;100225.26;2792196;85;21021;-67
2021/08/22 09:53:52;;;;;;;5.70;3.25;;;;;;;29.33;53.58;100226.18;2797525;84;21041;-65
2021/08/22 09:58:50;;;;;;;3.85;2.42;;;;;;;29.44;54.24;100212.11;2831763;84;20931;-66
2021/08/22 10:03:39;;;;;;;3.83;2.45;;;;;;;29.62;52.33;100211.52;2839369;84;21059;-65
2021/08/22 10:08:28;;;;;;;3.00;2.70;;;;;;;29.73;52.67;100212.46;2839460;84;20983;-66
2021/08/22 10:12:52;;;;;;;17.95;5.03;;;;;;;29.64;52.00;100198.38;2813991;82;20995;-64
2021/08/22 10:16:55;;;;;;;14.78;3.55;;;;;;;29.56;52.92;100199.66;2934543;80;21044;-64
2021/08/22 10:21:09;;;;;;;3.85;2.85;;;;;;;29.55;53.04;100191.15;2934038;81;20985;-65
2021/08/22 10:25:18;;;;;;;3.22;2.52;;;;;;;29.56;52.07;100163.22;2933963;81;21021;-65
2021/08/22 10:35:09;;;;;;;4.78;2.85;;;;;;;30.14;53.17;100184.70;2895132;81;20977;-67
2021/08/22 10:39:30;;;;;;;3.10;2.80;;;;;;;30.39;52.98;100164.06;2910228;81;20976;-64
2021/08/22 10:43:37;;;;;;;4.60;4.20;;;;;;;30.52;52.60;100171.87;2898108;82;21031;-64
2021/08/22 10:47:43;;;;;;;3.35;3.02;;;;;;;30.47;49.99;100164.98;2898392;81;20976;-65
2021/08/22 10:51:50;;;;;;;2.25;1.80;;;;;;;30.36;50.63;100166.78;2932851;81;21041;-70
2021/08/22 10:55:53;;;;;;;2.83;2.08;;;;;;;30.50;50.66;100164.45;2926455;80;21001;-66
2021/08/22 11:00:32;;;;;;;3.52;2.42;;;;;;;30.74;50.13;100147.62;2915518;81;21036;-64
2021/08/22 11:04:36;;;;;;;2.47;1.67;;;;;;;30.89;48.85;100144.14;2926833;81;21050;-65
2021/08/22 11:08:38;;;;;;;2.45;2.02;;;;;;;31.11;48.55;100137.13;2927327;81;20909;-63
2021/08/22 11:13:04;;;;;;;9.48;2.20;;;;;;;31.22;50.34;100134.45;2934481;79;20987;-64
2021/08/22 11:17:06;;;;;;;2.83;1.80;;;;;;;31.08;49.04;100138.20;2916040;79;21044;-67
2021/08/22 11:21:08;;;;;;;2.90;2.12;;;;;;;30.88;49.03;100134.25;2910102;81;21041;-66
2021/08/22 11:25:12;;;;;;;2.15;1.55;;;;;;;30.68;50.30;100135.78;2942636;80;21056;-68
2021/08/22 11:29:14;;;;;;;5.53;2.62;;;;;;;30.50;50.73;100143.87;2912456;81;21052;-64
2021/08/22 11:33:16;;;;;;;3.05;2.27;;;;;;;30.27;50.71;100147.26;2934732;81;21012;-64
2021/08/22 11:42:57;;;;;;;15.65;5.70;;;;;;;29.87;52.10;100164.91;2942519;81;20974;-64
2021/08/22 11:46:59;;;;;;;12.33;5.92;;;;;;;29.18;57.64;100225.43;2941371;81;20955;-58
2021/08/22 11:51:03;;;;;;;24.15;6.37;;;;;;;27.75;61.70;100212.55;2942835;81;20958;-56
2021/08/22 11:55:07;;;;;;;11.18;5.03;;;;;;;25.39;68.54;100220.73;2937397;81;21056;-56
2021/08/22 11:59:34;;;;;;;6.53;2.85;;;;;;;23.62;74.27;100253.31;2942614;81;20993;-56
2021/08/22 12:03:36;;;;;;;3.30;2.50;;;;;;;21.92;82.19;100244.38;2942695;81;21060;-57
2021/08/22 12:07:38;;;;;;;3.33;2.08;;;;;;;21.15;84.13;100228.94;2942792;81;20945;-57
2021/08/22 12:11:43;;;;;;;8.60;2.95;;;;;;;20.92;85.53;100225.97;2942907;81;20969;-57
2021/08/22 12:15:51;;;;;;;3.40;1.85;;;;;;;20.80;86.80;100222.95;2937576;79;20962;-57
2021/08/22 12:19:53;;;;;;;5.17;2.17;;;;;;;20.72;87.29;100234.39;2934016;81;20985;-57
2021/08/22 12:23:55;;;;;;;2.00;1.57;;;;;;;20.72;89.03;100241.14;2933921;80;20993;-57
2021/08/22 12:28:24;;;;;;;2.75;1.55;;;;;;;20.77;88.84;100245.45;2933620;80;21025;-57
2021/08/22 12:32:29;;;;;;;2.12;1.62;;;;;;;20.93;89.83;100255.17;2934389;81;20990;-56
2021/08/22 12:36:38;;;;;;;3.20;1.67;;;;;;;21.16;90.68;100265.77;2914035;81;21005;-57
2021/08/22 12:40:40;;;;;;;4.40;2.42;;;;;;;21.41;89.93;100255.84;2934040;81;21004;-58
2021/08/22 12:44:42;;;;;;;4.03;2.25;;;;;;;21.72;90.07;100252.43;2934195;80;21045;-56
2021/08/22 12:48:44;;;;;;;4.75;2.45;;;;;;;22.07;89.91;100246.94;2933400;80;21013;-57
2021/08/22 12:52:46;;;;;;;3.22;2.92;;;;;;;22.34;87.62;100249.20;2933685;80;21005;-58
2021/08/22 12:56:50;;;;;;;7.42;2.55;;;;;;;22.56;86.71;100250.42;2933671;81;20981;-57
2021/08/22 13:00:51;;;;;;;4.37;3.60;;;;;;;22.68;86.75;100265.05;2934325;81;20962;-58
2021/08/22 13:04:53;;;;;;;9.23;4.20;;;;;;;22.87;86.21;100270.70;2934473;81;21028;-57
2021/08/22 13:09:13;;;;;;;6.65;4.03;;;;;;;23.01;85.00;100273.42;2934215;79;21034;-57
2021/08/22 13:13:19;;;;;;;6.15;5.22;;;;;;;23.10;85.75;100281.66;2934655;81;20974;-57
2021/08/22 13:17:26;;;;;;;14.47;4.58;;;;;;;23.11;84.55;100279.25;2934415;81;20986;-58
2021/08/22 13:21:28;;;;;;;7.30;4.87;;;;;;;23.11;84.61;100274.67;2934222;81;20989;-59
2021/08/22 13:26:00;;;;;;;7.75;5.60;;;;;;;23.20;84.78;100273.94;2934451;80;21009;-59
2021/08/22 13:30:04;;;;;;;6.78;5.58;;;;;;;23.16;84.61;100263.17;2933845;81;21028;-58
2021/08/22 13:34:50;;;;;;;6.72;5.65;;;;;;;23.08;85.39;100264.22;2934343;81;20934;-57
2021/08/22 13:38:54;;;;;;;9.13;6.40;;;;;;;22.98;86.02;100266.53;2934542;80;21040;-57
2021/08/22 13:43:03;;;;;;;9.28;6.45;;;;;;;22.81;88.07;100262.05;2934453;81;20953;-58
2021/08/22 13:47:06;;;;;;;9.00;6.78;;;;;;;22.72;88.76;100253.28;2934596;80;21000;-59
2021/08/22 13:51:13;;;;;;;7.08;6.35;;;;;;;22.72;88.54;100242.94;2934531;80;20946;-57
2021/08/22 13:55:15;;;;;;;8.53;5.15;;;;;;;22.77;88.67;100226.87;2934546;81;21033;-57
2021/08/22 13:59:30;;;;;;;6.53;5.87;;;;;;;22.78;88.25;100225.84;2934313;80;20998;-57
2021/08/22 14:03:31;;;;;;;7.08;5.80;;;;;;;22.77;88.68;100216.88;2934098;81;21017;-58
2021/08/22 14:07:34;;;;;;;8.10;6.17;;;;;;;22.85;88.59;100216.34;2934331;81;21052;-59
2021/08/22 14:11:35;;;;;;;6.62;5.92;;;;;;;22.95;88.26;100214.88;2933656;81;21229;-59
2021/08/22 14:16:15;;;;;;;7.62;5.33;;;;;;;23.07;87.72;100208.30;2934106;79;21009;-60
2021/08/22 14:20:17;;;;;;;5.60;4.53;;;;;;;23.21;87.45;100203.71;2934242;81;20930;-59
2021/08/22 14:24:20;;;;;;;6.15;4.65;;;;;;;23.42;85.05;100210.46;2934248;80;21017;-58
2021/08/22 14:28:22;;;;;;;7.72;5.10;;;;;;;23.57;83.67;100203.41;2934452;81;20957;-61
2021/08/22 14:32:24;;;;;;;5.75;4.45;;;;;;;23.71;82.55;100201.51;2934186;80;21068;-58
2021/08/22 14:36:36;;;;;;;9.05;4.53;;;;;;;23.85;82.75;100193.59;2934214;81;21041;-58
2021/08/22 14:40:39;;;;;;;5.45;4.80;;;;;;;23.96;81.01;100190.20;2934466;80;20929;-58
2021/08/22 14:45:01;;;;;;;5.75;3.77;;;;;;;24.03;79.80;100187.48;2934243;81;20989;-58
2021/08/22 14:49:03;;;;;;;5.12;3.42;;;;;;;24.05;78.76;100197.61;2934163;81;21008;-58
2021/08/22 14:53:06;;;;;;;4.40;3.02;;;;;;;24.07;79.11;100191.43;2934242;80;21147;-59
2021/08/22 14:57:07;;;;;;;7.67;3.87;;;;;;;24.08;79.32;100194.45;2933928;81;20989;-58
2021/08/22 15:01:10;;;;;;;4.85;4.37;;;;;;;24.19;80.63;100186.67;2931708;81;20962;-59
2021/08/22 15:05:15;;;;;;;4.80;3.50;;;;;;;24.41;79.09;100181.69;2899463;79;20997;-66
2021/08/22 15:09:17;;;;;;;6.62;4.03;;;;;;;24.61;77.45;100172.04;2932873;80;20977;-68
2021/08/22 15:13:19;;;;;;;5.20;4.42;;;;;;;24.73;77.14;100165.34;2933744;81;21017;-68
2021/08/22 15:21:56;;;;;;;7.92;4.20;;;;;;;24.86;75.51;100166.30;2933639;81;21038;-68
2021/08/22 15:30:06;;;;;;;6.47;4.87;;;;;;;24.77;76.31;100157.61;2878866;82;21483;-70
2021/08/22 15:34:10;;;;;;;5.33;4.83;;;;;;;24.70;75.13;100161.72;2878476;82;21011;-70
2021/08/22 15:38:17;;;;;;;5.85;3.42;;;;;;;24.70;76.28;100156.79;2878488;81;21003;-71
2021/08/22 15:42:16;;;;;;;4.15;3.55;;;;;;;24.67;75.82;100162.17;2877055;80;21008;-70
2021/08/22 15:46:18;;;;;;;4.65;3.30;;;;;;;24.64;76.47;100163.44;2878057;81;21125;-70
2021/08/22 15:50:20;;;;;;;5.10;3.72;;;;;;;24.68;76.76;100155.67;2878250;82;21056;-70
2021/08/22 15:54:22;;;;;;;5.25;3.92;;;;;;;24.65;75.34;100146.06;2876943;82;21516;-70
2021/08/22 15:58:24;;;;;;;6.00;4.22;;;;;;;24.59;75.16;100151.04;2878053;81;21005;-70
2021/08/22 16:02:26;;;;;;;3.50;3.08;;;;;;;24.60;76.08;100149.13;2879055;80;21007;-71
2021/08/22 16:06:28;;;;;;;3.80;3.42;;;;;;;24.54;76.06;100153.57;2878792;82;21001;-70
2021/08/22 16:10:29;;;;;;;5.17;4.15;;;;;;;24.53;76.28;100155.98;2865099;82;21015;-69
2021/08/22 16:14:31;;;;;;;5.08;3.62;;;;;;;24.52;75.74;100158.40;2835502;81;20974;-69
2021/08/22 16:18:34;;;;;;;3.33;2.77;;;;;;;24.47;75.81;100156.88;2879036;81;21137;-70
2021/08/22 16:22:35;;;;;;;3.75;3.08;;;;;;;24.49;76.59;100158.84;2878904;81;21038;-71
2021/08/22 16:26:37;;;;;;;3.98;3.17;;;;;;;24.50;76.92;100161.36;2877829;81;21030;-70
2021/08/22 16:30:39;;;;;;;3.90;3.25;;;;;;;24.49;75.97;100169.20;2861844;82;21055;-70
2021/08/22 16:34:41;;;;;;;5.08;3.27;;;;;;;24.50;77.24;100175.46;2858904;83;21036;-70
2021/08/22 16:38:43;;;;;;;3.55;3.25;;;;;;;24.60;78.53;100175.81;2848203;81;21321;-70
2021/08/22 16:42:45;;;;;;;6.47;5.25;;;;;;;24.67;78.68;100177.13;2850552;83;21002;-69
2021/08/22 16:46:47;;;;;;;7.72;5.00;;;;;;;24.71;79.42;100178.85;2850062;83;21074;-69
2021/08/22 16:50:50;;;;;;;6.75;4.70;;;;;;;24.63;79.11;100180.80;2849812;83;21011;-70
2021/08/22 16:54:52;;;;;;;4.05;3.65;;;;;;;24.52;80.03;100182.36;2849309;83;21030;-70
2021/08/22 16:58:54;;;;;;;4.47;3.87;;;;;;;24.45;79.25;100180.73;2851207;83;21003;-70
2021/08/22 17:02:56;;;;;;;4.90;3.60;;;;;;;24.30;79.77;100187.31;2850383;83;21026;-69
2021/08/22 17:06:58;;;;;;;8.23;4.08;;;;;;;24.16;80.95;100190.65;2850166;83;21002;-69
2021/08/22 17:11:02;;;;;;;5.60;5.03;;;;;;;24.09;82.03;100187.97;2850733;83;21034;-69
2021/08/22 17:15:06;;;;;;;11.65;8.88;;;;;;;23.99;82.78;100185.38;2850483;83;21815;-70
2021/08/22 17:19:08;;;;;;;13.20;7.05;;;;;;;23.89;83.19;100188.06;2850735;83;21014;-71
2021/08/22 17:23:12;;;;;;;21.45;13.35;;;;;;;23.75;82.91;100181.83;2850228;83;20928;-70
2021/08/22 17:27:14;;;;;;;15.75;9.18;;;;;;;23.65;83.31;100182.29;2847275;82;21070;-70
2021/08/22 17:31:16;;;;;;;17.85;9.08;;;;;;;23.62;83.85;100187.34;2834440;84;21661;-69
2021/08/22 17:35:19;;;;;;;15.28;4.35;;;;;;;23.64;84.18;100186.59;2845215;83;21023;-69
2021/08/22 17:39:21;;;;;;;5.50;3.12;;;;;;;23.75;83.91;100177.76;2799630;85;20985;-71
2021/08/22 17:43:23;;;;;;;4.17;3.77;;;;;;;23.87;83.55;100171.66;2793439;84;21088;-70
2021/08/22 17:47:25;;;;;;;3.60;3.25;;;;;;;23.86;82.86;100166.73;2787224;85;21078;-69
2021/08/22 17:51:29;;;;;;;5.53;5.03;;;;;;;23.76;82.65;100167.74;2787266;84;21067;-69
2021/08/22 17:55:31;;;;;;;4.10;3.72;;;;;;;23.63;82.95;100170.00;2825656;84;21332;-69
2021/08/22 17:59:32;;;;;;;5.05;4.00;;;;;;;23.61;83.28;100169.38;2836457;84;21050;-69
2021/08/22 18:03:35;;;;;;;5.53;4.00;;;;;;;23.64;83.20;100170.31;2836744;84;21097;-69
2021/08/22 18:07:41;;;;;;;6.67;4.85;;;;;;;23.59;83.90;100180.45;2836421;84;21038;-69
2021/08/22 18:11:43;;;;;;;5.25;4.22;;;;;;;23.45;84.07;100170.17;2820484;83;21058;-70
2021/08/22 18:15:45;;;;;;;7.85;4.05;;;;;;;23.35;84.71;100176.55;2836434;82;21050;-70
2021/08/22 18:19:48;;;;;;;7.62;5.65;;;;;;;23.32;85.08;100181.05;2836765;84;21078;-70
2021/08/22 18:23:51;;;;;;;4.62;3.72;;;;;;;23.31;85.05;100178.88;2836431;84;21000;-70
2021/08/22 18:27:53;;;;;;;3.95;3.55;;;;;;;23.27;84.93;100186.30;2819182;82;21054;-69
2021/08/22 18:31:55;;;;;;;5.67;3.60;;;;;;;23.23;85.46;100185.84;2800808;85;21066;-68
2021/08/22 18:35:57;;;;;;;6.87;4.08;;;;;;;23.21;85.55;100190.14;2785381;83;20991;-68
2021/08/22 18:39:59;;;;;;;3.77;3.17;;;;;;;23.21;85.71;100184.72;2819879;83;21092;-68
2021/08/22 18:44:00;;;;;;;5.65;3.22;;;;;;;23.20;85.27;100182.20;2827682;84;21040;-68
2021/08/22 18:48:03;;;;;;;4.40;3.77;;;;;;;23.17;85.05;100185.34;2823825;84;20983;-69
2021/08/22 18:52:05;;;;;;;4.78;4.10;;;;;;;23.13;85.16;100184.11;2757582;86;21002;-68
2021/08/22 18:56:07;;;;;;;4.08;3.67;;;;;;;23.16;85.11;100183.14;2756023;86;21078;-69
2021/08/22 19:00:11;;;;;;;4.67;3.83;;;;;;;23.16;85.48;100189.10;2765375;84;20974;-68
2021/08/22 19:04:15;;;;;;;4.83;3.58;;;;;;;23.22;85.44;100191.81;2791371;83;21273;-69
2021/08/22 19:08:18;;;;;;;5.62;4.00;;;;;;;23.12;85.04;100192.75;2790959;85;21033;-70
2021/08/22 19:12:20;;;;;;;4.33;3.92;;;;;;;23.08;85.60;100196.40;2790886;85;21033;-69
2021/08/22 19:16:23;;;;;;;5.80;3.85;;;;;;;23.08;85.56;100195.05;2791535;84;21029;-69
2021/08/22 19:20:25;;;;;;;3.85;3.50;;;;;;;23.10;85.18;100195.70;2795377;84;21071;-69
2021/08/22 19:24:27;;;;;;;5.28;3.80;;;;;;;23.06;85.22;100206.63;2791132;83;21046;-69
2021/08/22 19:28:28;;;;;;;3.85;3.55;;;;;;;23.06;85.37;100193.61;2812313;83;21074;-69
2021/08/22 19:32:30;;;;;;;4.17;3.83;;;;;;;23.06;85.19;100186.83;2853042;83;21020;-69
2021/08/22 19:36:34;;;;;;;3.37;3.08;;;;;;;23.02;84.87;100182.87;2852958;83;21058;-69
2021/08/22 19:40:36;;;;;;;9.53;3.65;;;;;;;23.01;84.88;100179.85;2852919;82;21026;-68
2021/08/22 19:44:38;;;;;;;4.20;3.80;;;;;;;22.96;85.08;100179.13;2853280;83;21046;-69
2021/08/22 19:48:39;;;;;;;4.08;3.72;;;;;;;22.95;85.31;100168.78;2852619;83;21007;-69
2021/08/22 19:52:41;;;;;;;4.22;3.65;;;;;;;22.92;85.51;100175.98;2852783;83;21050;-68
2021/08/22 19:56:43;;;;;;;3.72;3.37;;;;;;;22.80;86.10;100173.62;2853307;83;21007;-68
2021/08/22 20:00:45;;;;;;;4.70;3.90;;;;;;;22.62;86.30;100166.09;2853532;83;21030;-69
2021/08/22 20:04:47;;;;;;;3.50;3.15;;;;;;;22.53;87.25;100166.83;2853442;83;20999;-69
2021/08/22 20:08:48;;;;;;;6.87;4.80;;;;;;;22.46;87.12;100157.84;2853320;83;21022;-69
2021/08/22 20:12:52;;;;;;;5.33;4.60;;;;;;;22.40;87.53;100158.98;2853383;83;21006;-69
2021/08/22 20:16:54;;;;;;;11.18;4.72;;;;;;;22.37;87.98;100152.60;2853553;83;20990;-69
2021/08/22 20:20:56;;;;;;;6.10;4.60;;;;;;;22.34;88.07;100150.31;2843550;82;21078;-69
2021/08/22 20:24:58;;;;;;;6.20;4.78;;;;;;;22.25;88.08;100151.56;2851897;83;21022;-69
2021/08/22 20:28:59;;;;;;;7.85;6.05;;;;;;;22.21;88.60;100161.16;2842512;83;21051;-69
2021/08/22 20:33:01;;;;;;;7.65;5.00;;;;;;;22.15;89.01;100160.09;2863734;83;21112;-70
2021/08/22 20:37:05;;;;;;;6.40;5.72;;;;;;;22.13;89.36;100168.09;2807925;84;21039;-70
2021/08/22 20:41:06;;;;;;;5.05;4.50;;;;;;;21.94;90.05;100166.48;2851870;83;21074;-70
2021/08/22 20:45:10;;;;;;;5.90;4.40;;;;;;;21.82;91.01;100166.25;2852498;83;21078;-69
2021/08/22 20:49:11;;;;;;;5.37;4.65;;;;;;;21.73;91.48;100153.95;2851786;83;21030;-70
2021/08/22 20:53:13;;;;;;;5.97;4.60;;;;;;;21.76;91.75;100154.89;2852102;83;21050;-70
2021/08/22 20:57:16;;;;;;;6.42;5.30;;;;;;;21.77;91.98;100148.44;2851726;82;21106;-70